Terminal Aerodrome Forecast
Issued by NWS Wilmington, OH

Current Version | Previous Version | Graphics & Text | Print | Product List | Glossary Off
Versions: 1 2 3 4 5 6 7 8 9 10 11 12 13 14 15 16 17 18 19 20

000
FTUS41 KILN 272100 AAA
TAFILN
TAF AMD
KILN 272100Z 2721/2818 28012KT P6SM VCSH OVC027
      TEMPO 2721/2722 5SM -SHSN BR OVC015
     FM280000 29010KT P6SM VCSH OVC025
     FM280900 24004KT P6SM SCT025
     FM281400 20007KT P6SM SCT025 BKN100=

USA.gov is the U.S. government's official web portal to all federal, state and local government web resources and services.